Time;durP1;ratioP1;P1;durP2;ratioP2;P2;SDS_P1;SDS_P2;PMS_P1;PMS_P2;Temp;Humidity;BMP_temperature;BMP_pressure;BME280_temperature;BME280_humidity;BME280_pressure;Samples;Min_cycle;Max_cycle;Signal;HPM_P1;HPM_P2
2023/12/21 00:00:31;;;;;;;1.40;1.30;;;;;;;4.29;82.57;94831.09;5135440;27;20491;-57
2023/12/21 00:03:00;;;;;;;2.00;1.70;;;;;;;4.50;81.96;94827.72;5135431;27;20434;-57
2023/12/21 00:05:29;;;;;;;3.80;1.33;;;;;;;4.74;85.44;94825.63;5135530;27;20499;-57
2023/12/21 00:07:58;;;;;;;1.27;0.70;;;;;;;4.83;85.45;94813.69;5109591;27;20439;-56
2023/12/21 00:10:27;;;;;;;0.80;0.80;;;;;;;4.85;84.42;94817.66;5135652;27;20438;-57
2023/12/21 00:12:56;;;;;;;0.80;0.80;;;;;;;4.80;84.26;94814.16;5135983;27;20538;-57
2023/12/21 00:15:26;;;;;;;1.50;1.40;;;;;;;4.80;84.11;94807.09;5134687;27;20470;-56
2023/12/21 00:17:54;;;;;;;2.50;1.80;;;;;;;4.74;80.21;94810.69;5135313;27;20445;-57
2023/12/21 00:20:23;;;;;;;2.47;2.30;;;;;;;4.30;82.20;94815.09;5134759;27;20466;-57
2023/12/21 00:22:51;;;;;;;1.60;1.47;;;;;;;4.35;82.78;94817.03;5135165;27;20499;-57
2023/12/21 00:25:20;;;;;;;1.33;1.23;;;;;;;4.44;81.81;94823.44;5135048;27;20483;-57
2023/12/21 00:27:48;;;;;;;5.60;1.27;;;;;;;4.53;81.17;94821.97;5134903;27;20442;-57
2023/12/21 00:30:17;;;;;;;5.43;1.03;;;;;;;4.57;80.86;94820.44;5135032;27;20422;-57
2023/12/21 00:32:47;;;;;;;2.10;2.00;;;;;;;4.66;80.93;94821.59;5135668;27;20958;-57
2023/12/21 00:35:16;;;;;;;6.03;2.27;;;;;;;4.43;80.57;94824.44;5134597;27;20478;-57
2023/12/21 00:37:44;;;;;;;4.40;1.43;;;;;;;4.33;80.47;94806.75;5135253;27;20883;-56
2023/12/21 00:40:14;;;;;;;2.23;1.07;;;;;;;4.50;80.98;94820.63;5134289;27;20531;-57
2023/12/21 00:42:42;;;;;;;1.33;1.33;;;;;;;4.43;79.67;94819.22;5134426;27;20470;-56
2023/12/21 00:45:11;;;;;;;2.00;1.80;;;;;;;4.35;80.17;94817.78;5134538;27;20467;-56
2023/12/21 00:47:40;;;;;;;1.43;1.33;;;;;;;4.36;79.84;94822.03;5134462;27;20518;-57
2023/12/21 00:50:10;;;;;;;3.80;2.60;;;;;;;4.37;79.67;94815.75;5135183;27;20522;-57
2023/12/21 00:52:39;;;;;;;3.83;2.73;;;;;;;4.45;78.90;94802.19;5134482;27;20431;-56
2023/12/21 00:55:09;;;;;;;2.30;1.43;;;;;;;3.96;80.92;94728.91;5134775;27;20466;-56
2023/12/21 00:57:38;;;;;;;2.60;1.70;;;;;;;4.49;81.36;94805.13;5134164;27;20434;-56
2023/12/21 01:00:07;;;;;;;3.80;2.43;;;;;;;4.48;81.66;94806.94;5133706;27;20442;-56
2023/12/21 01:02:36;;;;;;;0.83;0.83;;;;;;;4.41;79.45;94801.09;5131062;27;20447;-56
2023/12/21 01:05:05;;;;;;;2.47;1.87;;;;;;;4.41;79.30;94802.91;5124312;27;20816;-56
2023/12/21 01:07:35;;;;;;;5.03;1.00;;;;;;;3.87;82.36;94812.41;5134333;27;20438;-56
2023/12/21 01:10:05;;;;;;;8.43;2.37;;;;;;;3.49;85.74;94810.47;5133968;27;20498;-57
2023/12/21 01:12:34;;;;;;;3.87;1.87;;;;;;;3.41;88.59;94807.47;5128443;27;20431;-57
2023/12/21 01:15:03;;;;;;;4.10;1.50;;;;;;;3.55;88.54;94806.94;5126372;27;20442;-57
2023/12/21 01:17:32;;;;;;;2.63;1.63;;;;;;;3.96;85.78;94805.72;5134364;27;20868;-57
2023/12/21 01:20:00;;;;;;;10.30;2.23;;;;;;;4.02;82.80;94810.00;5134220;27;20438;-57
2023/12/21 01:22:29;;;;;;;1.83;1.73;;;;;;;3.78;83.81;94798.91;5108121;27;20442;-57
2023/12/21 01:24:59;;;;;;;7.33;2.70;;;;;;;3.40;83.61;94735.97;5133906;27;20521;-56
2023/12/21 01:27:28;;;;;;;2.57;2.37;;;;;;;3.92;82.50;94790.72;5133946;27;20953;-56
2023/12/21 01:30:00;;;;;;;3.23;2.00;;;;;;;3.76;81.89;94787.06;5133669;27;21006;-56
2023/12/21 01:32:29;;;;;;;3.33;2.10;;;;;;;3.85;81.37;94783.00;5133552;27;20434;-56
2023/12/21 01:34:57;;;;;;;13.17;3.37;;;;;;;3.87;80.31;94786.19;5134097;27;20427;-57
2023/12/21 01:37:26;;;;;;;2.83;1.03;;;;;;;4.02;80.73;94780.38;5134201;27;20687;-57
2023/12/21 01:39:55;;;;;;;2.53;2.40;;;;;;;3.96;79.87;94778.72;5133588;27;20466;-57
2023/12/21 01:42:25;;;;;;;1.77;1.67;;;;;;;3.94;80.41;94781.59;5133758;27;20438;-57
2023/12/21 01:44:54;;;;;;;2.80;2.13;;;;;;;4.08;81.52;94782.00;5133558;27;20439;-57
2023/12/21 01:47:23;;;;;;;2.87;1.37;;;;;;;4.05;80.69;94777.28;5133625;27;20506;-57
2023/12/21 01:49:52;;;;;;;2.10;1.03;;;;;;;4.14;82.45;94773.19;5133495;27;20451;-57
2023/12/21 01:52:22;;;;;;;1.87;1.77;;;;;;;4.11;81.60;94773.66;5133356;27;20907;-57
2023/12/21 01:54:51;;;;;;;2.03;1.87;;;;;;;4.09;81.77;94773.13;5107610;27;20443;-57
2023/12/21 01:57:20;;;;;;;0.73;0.73;;;;;;;4.13;82.64;94767.16;5132963;27;20474;-57
2023/12/21 01:59:51;;;;;;;0.87;0.87;;;;;;;4.05;81.32;94769.41;5133691;27;20538;-57
2023/12/21 02:02:19;;;;;;;1.77;1.67;;;;;;;3.97;81.29;94751.47;5132526;27;21004;-56
2023/12/21 02:04:48;;;;;;;1.53;0.60;;;;;;;4.06;80.61;94756.03;5133255;27;20827;-57
2023/12/21 02:07:17;;;;;;;1.83;1.73;;;;;;;4.10;81.20;94762.38;5132888;27;20439;-57
2023/12/21 02:09:46;;;;;;;0.97;0.87;;;;;;;4.12;80.00;94754.28;5132358;27;20469;-57
2023/12/21 02:12:14;;;;;;;1.60;1.57;;;;;;;4.19;80.62;94747.03;5130414;27;20430;-56
2023/12/21 02:15:01;;;;;;;1.47;1.23;;;;;;;4.13;80.89;94740.13;5121812;27;20441;-57
2023/12/21 02:17:32;;;;;;;0.73;0.73;;;;;;;4.16;80.90;94739.66;5132627;27;20557;-57
2023/12/21 02:20:01;;;;;;;3.27;2.03;;;;;;;4.23;82.75;94738.44;5133221;27;20441;-56
2023/12/21 02:22:33;;;;;;;1.07;0.80;;;;;;;4.21;84.51;94716.91;5106349;27;20438;-56
2023/12/21 02:25:05;;;;;;;1.73;1.00;;;;;;;4.29;84.55;94729.59;5119489;27;20496;-56
2023/12/21 02:27:34;;;;;;;2.23;0.67;;;;;;;4.29;81.74;94726.97;5132799;27;20438;-56
2023/12/21 02:30:03;;;;;;;2.43;0.93;;;;;;;3.85;82.13;94730.59;5127278;27;20536;-56
2023/12/21 02:32:32;;;;;;;1.17;0.70;;;;;;;3.68;84.27;94725.38;5132456;27;20437;-57
2023/12/21 02:35:00;;;;;;;1.77;1.43;;;;;;;3.44;85.01;94720.56;5132331;27;20458;-57
2023/12/21 02:37:32;;;;;;;1.03;0.93;;;;;;;3.69;83.28;94716.47;5133239;27;20470;-56
2023/12/21 02:40:01;;;;;;;2.73;2.53;;;;;;;3.79;81.86;94718.47;5132935;27;20427;-56
2023/12/21 02:42:31;;;;;;;1.17;1.17;;;;;;;3.01;83.78;94638.22;5133074;27;20480;-56
2023/12/21 02:44:59;;;;;;;1.13;1.03;;;;;;;3.21;85.65;94717.06;5131594;27;20473;-56
2023/12/21 02:47:28;;;;;;;2.40;1.27;;;;;;;2.83;89.00;94716.16;5132734;27;20449;-57
2023/12/21 02:49:57;;;;;;;3.93;2.77;;;;;;;2.68;88.38;94721.13;5132581;27;20434;-56
2023/12/21 02:52:25;;;;;;;2.30;2.20;;;;;;;2.48;88.95;94726.78;5132431;27;20466;-56
2023/12/21 02:54:54;;;;;;;1.80;1.70;;;;;;;2.28;89.76;94721.94;5105064;28;20930;-56
2023/12/21 02:57:22;;;;;;;5.27;4.87;;;;;;;1.81;90.37;94686.50;5132655;27;20466;-58
2023/12/21 02:59:52;;;;;;;2.67;2.47;;;;;;;2.23;89.36;94715.81;5132385;28;20484;-56
2023/12/21 03:02:21;;;;;;;2.90;2.70;;;;;;;2.18;89.07;94713.91;5132383;27;20446;-56
2023/12/21 03:04:49;;;;;;;2.03;1.83;;;;;;;2.56;85.62;94703.66;5132533;27;20434;-57
2023/12/21 03:07:18;;;;;;;3.30;2.20;;;;;;;2.67;84.35;94669.84;5131904;28;20515;-57
2023/12/21 03:09:46;;;;;;;5.10;2.03;;;;;;;2.94;83.08;94689.13;5132794;27;20446;-56
2023/12/21 03:12:15;;;;;;;3.67;1.83;;;;;;;3.30;82.93;94674.78;5132341;27;20438;-57
2023/12/21 03:14:44;;;;;;;0.70;0.70;;;;;;;2.66;82.98;94676.13;5132167;27;20435;-57
2023/12/21 03:17:14;;;;;;;0.80;0.80;;;;;;;2.24;87.22;94684.25;5132414;27;20508;-57
2023/12/21 03:19:42;;;;;;;1.83;1.70;;;;;;;2.10;92.62;94682.91;5132293;28;20509;-57
2023/12/21 03:22:11;;;;;;;4.60;2.40;;;;;;;1.53;94.42;94681.22;5134891;27;20458;-57
2023/12/21 03:24:39;;;;;;;1.97;1.77;;;;;;;1.74;99.01;94664.94;5136431;27;20438;-57
2023/12/21 03:27:09;;;;;;;1.37;1.20;;;;;;;2.20;96.75;94677.09;5136325;27;20438;-57
2023/12/21 03:29:38;;;;;;;2.03;1.93;;;;;;;2.07;93.19;94670.31;5136072;27;20526;-57
2023/12/21 03:32:07;;;;;;;1.90;1.80;;;;;;;2.43;100.00;94675.16;5135543;27;20809;-57
2023/12/21 03:34:37;;;;;;;1.27;1.17;;;;;;;2.95;99.58;94667.16;5136364;27;20426;-57
2023/12/21 03:37:06;;;;;;;1.00;0.97;;;;;;;3.19;94.35;94664.16;5110222;27;20486;-58
2023/12/21 03:39:34;;;;;;;1.33;1.23;;;;;;;2.82;88.13;94660.41;5135697;27;20435;-56
2023/12/21 03:42:03;;;;;;;1.57;1.47;;;;;;;2.68;91.47;94653.91;5136218;27;20934;-57
2023/12/21 03:44:32;;;;;;;7.47;3.20;;;;;;;3.17;94.85;94658.34;5133900;27;20438;-55
2023/12/21 03:47:01;;;;;;;1.53;1.47;;;;;;;3.36;93.15;94652.88;5125153;27;20465;-55
2023/12/21 03:49:29;;;;;;;3.80;3.60;;;;;;;3.26;90.27;94643.06;5135221;27;20435;-57
2023/12/21 03:52:00;;;;;;;1.23;1.13;;;;;;;3.10;87.07;94610.63;5135800;27;20480;-58
2023/12/21 03:54:28;;;;;;;5.53;1.73;;;;;;;3.34;84.54;94634.00;5135052;27;20438;-56
2023/12/21 03:56:57;;;;;;;3.83;3.60;;;;;;;3.40;83.50;94641.66;5135680;27;20839;-56
2023/12/21 03:59:25;;;;;;;8.53;4.13;;;;;;;3.03;83.69;94637.97;5135405;27;20439;-57
2023/12/21 04:01:56;;;;;;;2.43;2.23;;;;;;;1.87;87.97;94651.63;5135757;27;20442;-57
2023/12/21 04:04:25;;;;;;;4.70;2.33;;;;;;;1.51;92.83;94644.09;5135181;27;20438;-57
2023/12/21 04:06:56;;;;;;;11.43;3.20;;;;;;;1.00;96.31;94661.25;5135747;27;20521;-57
2023/12/21 04:09:26;;;;;;;13.73;3.33;;;;;;;0.43;100.00;94667.94;5135337;27;20423;-58
2023/12/21 04:11:54;;;;;;;2.40;2.20;;;;;;;0.11;100.00;94660.56;5135358;27;20509;-56
2023/12/21 04:14:23;;;;;;;10.83;2.13;;;;;;;0.19;100.00;94662.88;5135316;27;20483;-56
2023/12/21 04:16:51;;;;;;;3.10;2.80;;;;;;;0.09;100.00;94678.22;5134716;27;20445;-57
2023/12/21 04:19:20;;;;;;;1.67;1.40;;;;;;;0.64;100.00;94690.09;5135106;27;20461;-57
2023/12/21 04:21:49;;;;;;;1.50;1.40;;;;;;;1.02;100.00;94684.50;5135154;27;20437;-57
2023/12/21 04:24:19;;;;;;;2.63;1.60;;;;;;;1.39;100.00;94685.88;5134784;27;20442;-57
2023/12/21 04:26:49;;;;;;;1.00;0.90;;;;;;;1.82;96.01;94681.03;5134431;27;20435;-57
2023/12/21 04:29:18;;;;;;;1.27;1.17;;;;;;;1.86;92.20;94679.56;5135102;27;20441;-57
2023/12/21 04:31:46;;;;;;;3.30;0.70;;;;;;;2.12;90.76;94682.69;5134323;27;20491;-57
2023/12/21 04:34:15;;;;;;;4.00;0.90;;;;;;;2.17;89.21;94673.13;5134431;27;20438;-57
2023/12/21 04:36:43;;;;;;;1.17;1.07;;;;;;;2.34;87.70;94673.97;5134703;27;20445;-57
2023/12/21 04:39:12;;;;;;;0.87;0.60;;;;;;;2.34;87.03;94676.59;5124734;27;20946;-57
2023/12/21 04:41:41;;;;;;;1.13;0.87;;;;;;;2.33;87.78;94675.00;5132749;27;20431;-57
2023/12/21 04:44:11;;;;;;;0.80;0.80;;;;;;;2.60;86.40;94679.66;5134469;27;20871;-57
2023/12/21 04:46:39;;;;;;;1.30;0.77;;;;;;;2.45;86.66;94675.72;5134680;27;20427;-57
2023/12/21 04:49:08;;;;;;;5.30;1.07;;;;;;;2.35;86.41;94659.09;5134447;27;20495;-56
2023/12/21 04:51:38;;;;;;;1.20;1.10;;;;;;;2.20;87.77;94664.81;5134183;27;20501;-57
2023/12/21 04:54:07;;;;;;;5.60;1.70;;;;;;;2.47;87.44;94681.53;5134592;27;20953;-57
2023/12/21 04:56:40;;;;;;;0.50;0.50;;;;;;;2.69;86.07;94686.88;5124786;27;20469;-57
2023/12/21 04:59:10;;;;;;;1.13;1.13;;;;;;;2.50;87.32;94681.03;5134311;27;20492;-58
2023/12/21 05:01:39;;;;;;;1.90;1.67;;;;;;;2.08;87.08;94598.72;5134839;27;20499;-58
2023/12/21 05:04:09;;;;;;;0.50;0.50;;;;;;;2.70;86.97;94679.84;5134145;27;20439;-57
2023/12/21 05:06:38;;;;;;;1.77;1.77;;;;;;;2.70;87.27;94682.44;5134702;27;20522;-57
2023/12/21 05:09:07;;;;;;;0.90;0.80;;;;;;;2.32;88.97;94631.59;5133992;27;20434;-57
2023/12/21 05:11:35;;;;;;;0.67;0.63;;;;;;;2.39;89.21;94678.50;5134531;27;20434;-57
2023/12/21 05:14:04;;;;;;;4.67;1.07;;;;;;;2.20;91.38;94677.88;5133862;27;20426;-58
2023/12/21 05:16:34;;;;;;;0.83;0.80;;;;;;;2.25;92.03;94685.81;5134072;27;20517;-57
2023/12/21 05:19:02;;;;;;;0.73;0.73;;;;;;;2.03;94.90;94690.09;5120267;27;20474;-57
2023/12/21 05:21:31;;;;;;;1.80;1.70;;;;;;;2.04;94.53;94689.06;5133887;27;20434;-58
2023/12/21 05:24:00;;;;;;;3.10;2.80;;;;;;;1.87;95.72;94701.28;5134108;27;20446;-58
2023/12/21 05:26:28;;;;;;;1.30;1.23;;;;;;;1.95;96.65;94705.34;5133955;27;20427;-58
2023/12/21 05:28:57;;;;;;;2.97;0.90;;;;;;;2.25;94.50;94705.97;5134072;27;20442;-58
2023/12/21 05:31:26;;;;;;;1.90;1.80;;;;;;;2.50;91.26;94688.91;5133757;27;20444;-58
2023/12/21 05:33:56;;;;;;;2.83;2.57;;;;;;;2.65;90.84;94700.66;5133846;27;20935;-58
2023/12/21 05:36:25;;;;;;;2.20;1.40;;;;;;;2.58;90.43;94696.38;5133672;27;20520;-57
2023/12/21 05:38:54;;;;;;;2.03;1.40;;;;;;;2.07;88.25;94686.00;5133792;27;20478;-57
2023/12/21 05:41:23;;;;;;;2.20;1.80;;;;;;;1.91;90.42;94699.78;5133441;27;20434;-58
2023/12/21 05:43:52;;;;;;;3.67;3.37;;;;;;;1.58;89.72;94657.81;5133059;27;20438;-57
2023/12/21 05:46:20;;;;;;;4.87;3.80;;;;;;;1.89;89.50;94694.81;5132713;27;20448;-57
2023/12/21 05:48:49;;;;;;;3.97;3.50;;;;;;;1.92;89.17;94689.09;5133202;27;20512;-58
2023/12/21 05:51:19;;;;;;;7.53;4.30;;;;;;;1.90;89.26;94695.56;5132875;27;20470;-58
2023/12/21 05:53:47;;;;;;;12.30;4.23;;;;;;;2.05;88.96;94700.34;5132870;27;20438;-58
2023/12/21 05:56:16;;;;;;;4.47;4.07;;;;;;;2.11;87.94;94702.81;5133020;27;20828;-58
2023/12/21 05:58:45;;;;;;;11.30;2.33;;;;;;;1.90;89.28;94693.75;5132806;27;20885;-58
2023/12/21 06:01:13;;;;;;;2.30;2.10;;;;;;;2.04;88.48;94696.13;5133213;27;20832;-56
2023/12/21 06:03:42;;;;;;;12.87;3.10;;;;;;;2.02;87.71;94704.19;5133176;27;20821;-57
2023/12/21 06:06:13;;;;;;;2.70;2.60;;;;;;;2.05;87.17;94705.56;5133708;27;20434;-58
2023/12/21 06:08:43;;;;;;;4.33;4.13;;;;;;;2.01;88.02;94710.44;5133173;27;20824;-57
2023/12/21 06:11:11;;;;;;;2.80;2.60;;;;;;;2.04;88.15;94720.44;5133533;27;20466;-57
2023/12/21 06:13:40;;;;;;;6.40;3.20;;;;;;;1.97;88.59;94722.38;5132858;27;20480;-57
2023/12/21 06:16:11;;;;;;;6.83;4.83;;;;;;;2.10;87.84;94713.50;5133338;27;20439;-58
2023/12/21 06:18:40;;;;;;;20.90;3.60;;;;;;;1.91;89.13;94728.53;5132701;27;20465;-58
2023/12/21 06:21:09;;;;;;;3.17;2.90;;;;;;;1.87;89.75;94730.03;5133131;27;20442;-56
2023/12/21 06:23:38;;;;;;;4.27;3.93;;;;;;;2.01;89.13;94731.34;5132404;27;20443;-56
2023/12/21 06:26:08;;;;;;;4.20;3.87;;;;;;;2.06;88.06;94713.16;5132989;27;20438;-57
2023/12/21 06:28:37;;;;;;;8.90;2.90;;;;;;;1.90;88.84;94724.31;5133101;27;20430;-58
2023/12/21 06:31:05;;;;;;;5.33;4.83;;;;;;;1.98;89.13;94718.72;5132873;27;20434;-57
2023/12/21 06:33:34;;;;;;;7.50;4.77;;;;;;;1.69;88.67;94680.53;5132854;27;20435;-57
2023/12/21 06:36:03;;;;;;;3.37;3.07;;;;;;;1.52;89.59;94663.97;5132846;27;20434;-57
2023/12/21 06:38:32;;;;;;;6.33;3.60;;;;;;;2.01;89.66;94718.28;5132679;27;20555;-58
2023/12/21 06:41:00;;;;;;;6.73;4.47;;;;;;;2.35;89.29;94712.16;5132752;27;20446;-58
2023/12/21 06:43:31;;;;;;;5.60;4.33;;;;;;;2.45;88.42;94717.56;5132635;27;20842;-58
2023/12/21 06:46:01;;;;;;;5.33;4.83;;;;;;;2.40;87.55;94724.53;5132708;27;20897;-58
2023/12/21 06:48:30;;;;;;;3.70;3.47;;;;;;;2.59;86.26;94712.84;5132356;27;20517;-58
2023/12/21 06:50:59;;;;;;;4.77;4.57;;;;;;;2.57;84.85;94709.69;5131718;27;20481;-58
2023/12/21 06:53:27;;;;;;;6.67;4.70;;;;;;;2.23;85.39;94713.22;5132530;27;20438;-58
2023/12/21 06:55:56;;;;;;;8.80;5.13;;;;;;;1.70;89.58;94719.47;5131455;27;20758;-58
2023/12/21 06:58:46;;;;;;;13.10;8.40;;;;;;;1.47;89.52;94713.47;5132220;27;20912;-58
2023/12/21 07:01:15;;;;;;;6.10;5.47;;;;;;;1.35;90.48;94700.41;5131791;27;20441;-58
2023/12/21 07:03:43;;;;;;;3.33;3.13;;;;;;;1.34;90.29;94709.28;5132250;28;20470;-58
2023/12/21 07:06:12;;;;;;;5.20;3.43;;;;;;;1.48;90.52;94717.66;5131932;28;20426;-59
2023/12/21 07:08:40;;;;;;;11.43;2.90;;;;;;;1.62;89.89;94708.59;5132648;28;20884;-59
2023/12/21 07:11:09;;;;;;;8.37;4.13;;;;;;;2.14;87.63;94702.34;5132758;27;20439;-58
2023/12/21 07:13:38;;;;;;;2.80;2.70;;;;;;;2.23;85.23;94690.47;5132502;27;20442;-59
2023/12/21 07:16:08;;;;;;;3.07;2.23;;;;;;;2.68;84.91;94713.28;5131467;27;20441;-58
2023/12/21 07:18:37;;;;;;;14.80;2.90;;;;;;;2.33;82.66;94655.88;5131901;28;20479;-58
2023/12/21 07:21:06;;;;;;;4.17;3.77;;;;;;;2.14;84.04;94699.72;5132652;27;20855;-58
2023/12/21 07:23:35;;;;;;;5.53;5.03;;;;;;;2.54;83.75;94704.91;5132442;28;20434;-58
2023/12/21 07:26:04;;;;;;;14.07;3.70;;;;;;;2.50;82.67;94722.88;5132362;27;21133;-57
2023/12/21 07:28:35;;;;;;;1.40;1.40;;;;;;;2.31;83.74;94725.91;5127712;28;20500;-58
2023/12/21 07:31:04;;;;;;;5.30;3.33;;;;;;;2.21;84.80;94736.19;5123273;28;20438;-58
2023/12/21 07:33:34;;;;;;;4.50;4.30;;;;;;;2.31;85.29;94739.00;5131022;28;20434;-58
2023/12/21 07:36:07;;;;;;;5.30;3.40;;;;;;;1.95;87.98;94713.97;5132012;28;20478;-58
2023/12/21 07:38:37;;;;;;;1.90;1.80;;;;;;;2.47;86.81;94746.91;5131554;28;20442;-58
2023/12/21 07:41:07;;;;;;;2.60;2.40;;;;;;;2.77;85.08;94738.03;5131934;28;20533;-57
2023/12/21 07:43:38;;;;;;;5.23;2.20;;;;;;;2.95;85.04;94738.63;5132369;28;20847;-57
2023/12/21 07:46:09;;;;;;;4.87;2.00;;;;;;;3.59;81.68;94723.41;5131846;28;20849;-58
2023/12/21 07:48:39;;;;;;;4.50;2.63;;;;;;;3.35;84.83;94722.78;5131807;27;20441;-60
2023/12/21 07:51:09;;;;;;;5.17;3.70;;;;;;;3.47;85.39;94697.28;5131541;27;20514;-60
2023/12/21 07:53:38;;;;;;;4.53;3.40;;;;;;;3.90;84.55;94724.63;5132007;27;20444;-60
2023/12/21 07:56:08;;;;;;;7.40;4.90;;;;;;;3.74;83.81;94690.34;5132073;28;20487;-60
2023/12/21 07:58:36;;;;;;;3.77;3.43;;;;;;;4.71;83.33;94721.13;5131761;27;20503;-58
2023/12/21 08:01:05;;;;;;;6.00;2.47;;;;;;;5.17;81.95;94722.34;5131400;28;20491;-60
2023/12/21 08:03:34;;;;;;;6.97;3.57;;;;;;;6.02;77.80;94725.63;5131830;27;20431;-60
2023/12/21 08:06:05;;;;;;;5.20;4.73;;;;;;;6.60;73.59;94721.94;5132117;28;20831;-59
2023/12/21 08:08:33;;;;;;;5.33;5.03;;;;;;;7.11;72.45;94724.69;5133465;27;20938;-60
2023/12/21 08:11:11;;;;;;;5.10;4.27;;;;;;;7.48;70.58;94717.34;5135505;27;20819;-60
2023/12/21 08:13:40;;;;;;;9.53;3.47;;;;;;;7.91;68.01;94718.63;5135543;27;20458;-60
2023/12/21 08:16:08;;;;;;;10.53;6.27;;;;;;;8.50;65.04;94705.53;5134968;27;20438;-60
2023/12/21 08:18:37;;;;;;;4.07;3.93;;;;;;;8.98;63.26;94703.97;5134937;27;20958;-60
2023/12/21 08:21:07;;;;;;;9.63;5.37;;;;;;;8.90;61.40;94705.34;5133980;27;20602;-62
2023/12/21 08:23:36;;;;;;;3.57;3.37;;;;;;;8.38;62.11;94705.84;5134531;27;20438;-61
2023/12/21 08:26:05;;;;;;;4.93;4.33;;;;;;;8.53;62.64;94705.78;5135369;27;20958;-60
2023/12/21 08:28:34;;;;;;;2.97;2.67;;;;;;;8.46;61.47;94693.94;5134963;27;20439;-61
2023/12/21 08:31:03;;;;;;;8.03;4.17;;;;;;;8.59;61.53;94699.41;5135362;27;20479;-61
2023/12/21 08:33:32;;;;;;;7.73;2.80;;;;;;;8.78;60.57;94708.28;5135106;27;20791;-61
2023/12/21 08:36:00;;;;;;;17.17;4.10;;;;;;;8.62;60.96;94698.09;5135031;27;20434;-61
2023/12/21 08:38:31;;;;;;;1.77;1.67;;;;;;;8.78;60.01;94691.66;5127741;27;20435;-61
2023/12/21 08:41:02;;;;;;;3.47;2.13;;;;;;;9.19;60.75;94686.91;5117427;27;20550;-61
2023/12/21 08:43:32;;;;;;;14.63;3.80;;;;;;;9.66;60.59;94689.72;5135027;27;20442;-59
2023/12/21 08:46:01;;;;;;;5.07;4.67;;;;;;;9.59;60.67;94671.50;5134283;27;20430;-58
2023/12/21 08:48:30;;;;;;;6.00;4.43;;;;;;;10.36;58.48;94682.94;5134735;27;20438;-57
2023/12/21 08:50:58;;;;;;;5.30;3.43;;;;;;;10.83;58.23;94668.81;5133854;27;20466;-57
2023/12/21 08:53:27;;;;;;;2.73;2.53;;;;;;;11.31;56.86;94659.63;5134608;27;20529;-57
2023/12/21 08:55:57;;;;;;;3.60;3.50;;;;;;;11.97;55.74;94650.56;5134649;27;20439;-57
2023/12/21 08:58:26;;;;;;;7.30;3.93;;;;;;;12.44;54.84;94644.09;5134399;27;20810;-58
2023/12/21 09:00:55;;;;;;;5.13;4.83;;;;;;;12.79;53.23;94623.94;5107619;27;20500;-60
2023/12/21 09:03:24;;;;;;;8.33;4.03;;;;;;;12.88;53.36;94632.78;5134751;27;20474;-60
2023/12/21 09:05:53;;;;;;;8.20;7.20;;;;;;;12.72;53.54;94625.13;5134614;27;20818;-60
2023/12/21 09:08:21;;;;;;;6.73;6.23;;;;;;;13.58;52.18;94620.53;5134691;27;20431;-60
2023/12/21 09:10:50;;;;;;;14.13;6.00;;;;;;;14.08;50.96;94609.63;5134265;27;20430;-60
2023/12/21 09:13:21;;;;;;;17.40;8.53;;;;;;;13.87;50.47;94612.84;5134719;27;20495;-61
2023/12/21 09:15:50;;;;;;;21.03;3.20;;;;;;;13.90;50.91;94616.78;5134255;27;20431;-60
2023/12/21 09:18:18;;;;;;;5.60;5.17;;;;;;;14.49;49.50;94608.25;5133654;27;20488;-61
2023/12/21 09:20:47;;;;;;;3.53;3.23;;;;;;;14.99;48.35;94595.28;5106810;27;20486;-61
2023/12/21 09:23:16;;;;;;;5.30;3.17;;;;;;;15.77;46.81;94596.00;5133429;27;20500;-61
2023/12/21 09:25:44;;;;;;;12.60;3.20;;;;;;;15.37;46.50;94584.72;5133677;27;20442;-61
2023/12/21 09:28:13;;;;;;;2.30;2.10;;;;;;;15.31;46.52;94577.97;5133167;27;20503;-61
2023/12/21 09:30:44;;;;;;;4.73;3.90;;;;;;;15.43;45.79;94566.66;5133490;27;20954;-61
2023/12/21 09:33:13;;;;;;;4.07;3.77;;;;;;;15.54;47.42;94565.25;5133263;27;20434;-61
2023/12/21 09:35:42;;;;;;;4.37;3.50;;;;;;;15.37;45.29;94565.25;5134235;27;20426;-60
2023/12/21 09:38:10;;;;;;;3.83;3.57;;;;;;;14.33;46.49;94561.78;5133348;27;20427;-61
2023/12/21 09:40:40;;;;;;;4.60;3.03;;;;;;;14.40;46.70;94540.78;5133524;27;20477;-61
2023/12/21 09:43:16;;;;;;;4.67;4.20;;;;;;;15.37;45.28;94533.22;5117352;27;20522;-60
2023/12/21 09:45:51;;;;;;;2.90;2.70;;;;;;;15.12;45.08;94527.63;5133335;27;20433;-60
2023/12/21 09:48:21;;;;;;;3.83;3.20;;;;;;;15.37;45.17;94526.00;5133326;27;20509;-59
2023/12/21 09:50:52;;;;;;;2.47;2.00;;;;;;;15.40;45.26;94525.38;5123693;27;20478;-59
2023/12/21 09:53:22;;;;;;;7.23;3.50;;;;;;;15.99;44.54;94509.47;5133518;27;20995;-59
2023/12/21 09:55:53;;;;;;;3.50;2.03;;;;;;;15.62;44.62;94511.81;5133802;27;20822;-59
2023/12/21 09:58:22;;;;;;;3.90;3.70;;;;;;;15.72;46.25;94516.81;5132603;27;20442;-59
2023/12/21 10:00:52;;;;;;;2.80;2.60;;;;;;;15.86;44.56;94500.56;5133824;27;20474;-59
2023/12/21 10:03:20;;;;;;;3.33;3.03;;;;;;;15.73;43.14;94450.81;5133370;27;20919;-58
2023/12/21 10:05:49;;;;;;;2.50;2.40;;;;;;;15.93;43.62;94476.78;5132208;27;20903;-58
2023/12/21 10:08:18;;;;;;;2.03;1.43;;;;;;;15.80;44.53;94485.81;5133086;27;20954;-58
2023/12/21 10:10:47;;;;;;;2.80;2.60;;;;;;;15.01;45.32;94465.00;5132508;27;20430;-59
2023/12/21 10:13:16;;;;;;;2.20;2.00;;;;;;;15.33;44.89;94484.22;5133084;27;20434;-58
2023/12/21 10:15:46;;;;;;;2.80;2.60;;;;;;;15.09;45.94;94468.75;5128312;27;20439;-58
2023/12/21 10:18:16;;;;;;;4.07;2.97;;;;;;;15.49;45.49;94475.41;5125050;27;20993;-59
2023/12/21 10:20:45;;;;;;;4.87;2.33;;;;;;;16.34;44.96;94468.81;5132242;27;20482;-59
2023/12/21 10:23:14;;;;;;;5.03;1.27;;;;;;;16.91;44.29;94455.63;5133302;27;20435;-59
2023/12/21 10:25:46;;;;;;;4.33;1.97;;;;;;;16.45;43.37;94453.94;5106672;27;20438;-59
2023/12/21 10:28:15;;;;;;;1.50;1.50;;;;;;;16.40;43.60;94448.00;5132957;27;20495;-59
2023/12/21 10:30:44;;;;;;;3.63;1.00;;;;;;;17.15;43.41;94450.34;5132044;27;20443;-58
2023/12/21 10:33:15;;;;;;;2.17;1.23;;;;;;;16.98;44.14;94437.16;5131503;27;20503;-57
2023/12/21 10:35:45;;;;;;;5.93;5.40;;;;;;;17.61;42.94;94443.88;5132004;27;20934;-57
2023/12/21 10:38:14;;;;;;;2.43;2.23;;;;;;;17.83;41.63;94428.47;5132712;27;20434;-59
2023/12/21 10:40:45;;;;;;;1.60;0.87;;;;;;;17.62;42.19;94394.53;5121536;27;20497;-58
2023/12/21 10:43:15;;;;;;;1.40;1.30;;;;;;;17.39;42.78;94414.03;5130618;27;20433;-57
2023/12/21 10:45:45;;;;;;;1.60;1.50;;;;;;;17.27;42.75;94353.19;5132668;27;20460;-49
2023/12/21 10:48:15;;;;;;;2.37;1.50;;;;;;;18.08;42.99;94406.69;5119382;27;20438;-48
2023/12/21 10:50:49;;;;;;;4.27;1.40;;;;;;;18.94;40.84;94373.88;5132528;27;20480;-49
2023/12/21 10:53:25;;;;;;;1.90;1.80;;;;;;;18.82;40.95;94392.69;5132286;27;20442;-49
2023/12/21 10:55:55;;;;;;;1.00;0.90;;;;;;;19.18;42.98;94410.53;5131810;27;20434;-49
2023/12/21 10:58:26;;;;;;;2.33;2.23;;;;;;;19.77;39.10;94398.94;5132516;27;20469;-49
2023/12/21 11:00:56;;;;;;;2.20;0.90;;;;;;;19.62;38.87;94406.69;5132324;27;20474;-49
2023/12/21 11:03:27;;;;;;;2.40;1.43;;;;;;;19.95;38.06;94384.00;5132718;28;20820;-49
2023/12/21 11:05:58;;;;;;;4.20;1.50;;;;;;;20.29;37.41;94323.28;5131647;27;20436;-49
2023/12/21 11:08:29;;;;;;;1.73;1.50;;;;;;;20.62;37.48;94393.53;5132967;27;20518;-49
2023/12/21 11:10:59;;;;;;;0.63;0.60;;;;;;;20.61;37.87;94395.47;5132454;27;20442;-49
2023/12/21 11:13:28;;;;;;;2.70;2.50;;;;;;;19.77;38.92;94383.59;5132163;27;20443;-49
2023/12/21 11:15:58;;;;;;;4.50;1.53;;;;;;;20.22;38.73;94378.47;5125405;28;20475;-49
2023/12/21 11:18:27;;;;;;;3.80;1.73;;;;;;;19.94;39.96;94374.38;5132435;28;20474;-49
2023/12/21 11:21:01;;;;;;;3.83;2.40;;;;;;;20.58;38.82;94296.56;5132360;27;20801;-50
2023/12/21 11:23:29;;;;;;;6.50;1.77;;;;;;;21.29;37.40;94368.66;5132335;28;20470;-49
2023/12/21 11:25:59;;;;;;;2.43;2.30;;;;;;;21.24;37.87;94366.28;5132535;27;20482;-49
2023/12/21 11:28:31;;;;;;;2.40;2.17;;;;;;;21.53;35.93;94351.31;5131985;27;20442;-50
2023/12/21 11:30:59;;;;;;;2.00;1.23;;;;;;;21.52;35.45;94349.78;5131794;28;20426;-49
2023/12/21 11:33:29;;;;;;;1.43;0.87;;;;;;;21.52;35.58;94339.78;5126895;27;20442;-49
2023/12/21 11:36:02;;;;;;;3.73;1.50;;;;;;;21.42;36.01;94332.31;5132372;28;20474;-49
2023/12/21 11:38:45;;;;;;;2.00;1.90;;;;;;;21.56;35.73;94330.94;5132334;28;20877;-56
2023/12/21 11:41:23;;;;;;;2.47;2.37;;;;;;;20.45;37.13;94326.66;5110540;28;20513;-59
2023/12/21 11:44:02;;;;;;;3.20;2.20;;;;;;;20.46;37.69;94326.31;5135741;27;20426;-58
2023/12/21 11:46:33;;;;;;;1.37;1.27;;;;;;;21.26;37.18;94318.19;5136582;27;20440;-59
2023/12/21 11:49:02;;;;;;;5.20;1.63;;;;;;;21.36;36.17;94316.78;5136103;27;20767;-59